Bandar Lengeh, Iran
Current Conditions -  °F | °C
As of 5:00 AM on Thursday 18 Dec 2014 (Local Time) from OIBL Reporting Station
Clear Clear  
Wind Chill: 64°   Ceiling: Unl
Heat Index: 64°   Visibility: 6mi
Dew Point: 55°   Wind: 5mph
Humidity: 73%   Direction: 330°NNW
Pressure: 30.03"   Gusts: NA
Location:  26.56°N, 54.88°E
Report Text: OIBL 180200Z 33004KT CAVOK 18/13 Q1017
Loading
Personal Weather Stations






























Interactive Weather Map New forecast layout! Learn more

10-Day Weather Forecast

Advertisements
Track Severe Weather on mobile